Monte Sereno, California
Current Conditions -  °F | °C
As of 8:52 PM on Friday 28 Nov 2014 (Local Time) from KRHV Reporting Station
Clear Clear  
Wind Chill: 52°   Ceiling: Unl
Heat Index: 52°   Visibility: 10mi
Dew Point: 48°   Wind: 5mph
Humidity: 88%   Direction: NA
Pressure: 29.9"   Gusts: NA
Location:  37.1624°N, 121.959°W
Report Text: KRHV 290452Z VRB04KT 10SM SKC 11/09 A2990
Loading
Personal Weather Stations






























Interactive Weather Map New forecast layout! Learn more

10-Day Weather Forecast

Advertisements
Track Severe Weather on mobile